createdAt,value
2022-12-26T00:00:25.671Z,96807.06
2022-12-26T00:02:52.145Z,96807.88
2022-12-26T00:05:18.541Z,96808.69
2022-12-26T00:07:45.700Z,96808.63
2022-12-26T00:10:12.096Z,96814.59
2022-12-26T00:12:38.454Z,96800.22
2022-12-26T00:15:05.090Z,96801.06
2022-12-26T00:17:31.510Z,96802.78
2022-12-26T00:19:57.898Z,96798.47
2022-12-26T00:22:24.316Z,96802.03
2022-12-26T00:24:50.716Z,96799.50
2022-12-26T00:27:17.182Z,96807.22
2022-12-26T00:29:43.539Z,96802.94
2022-12-26T00:32:09.929Z,96807.34
2022-12-26T00:34:36.398Z,96811.59
2022-12-26T00:37:02.838Z,96807.34
2022-12-26T00:39:29.239Z,96823.50
2022-12-26T00:41:55.613Z,96818.41
2022-12-26T00:44:22.017Z,96821.00
2022-12-26T00:46:48.405Z,96821.97
2022-12-26T00:49:14.794Z,96813.69
2022-12-26T00:51:41.158Z,96823.06
2022-12-26T00:54:07.574Z,96817.09
2022-12-26T00:56:33.970Z,96817.88
2022-12-26T00:59:00.314Z,96823.00
2022-12-26T01:01:30.884Z,96810.19
2022-12-26T01:03:58.313Z,96824.69
2022-12-26T01:06:24.802Z,96832.25
2022-12-26T01:08:52.561Z,96848.31
2022-12-26T01:11:39.279Z,96845.72
2022-12-26T01:14:08.963Z,96843.13
2022-12-26T01:16:35.363Z,96838.13
2022-12-26T01:19:01.945Z,96838.97
2022-12-26T01:21:28.300Z,96834.75
2022-12-26T01:23:55.048Z,96840.78
2022-12-26T01:26:21.383Z,96842.50
2022-12-26T01:28:49.515Z,96841.75
2022-12-26T01:31:18.908Z,96842.56
2022-12-26T01:33:45.934Z,96844.22
2022-12-26T01:36:12.959Z,96836.53
2022-12-26T01:38:39.389Z,96839.22
2022-12-26T01:41:19.234Z,96839.09
2022-12-26T01:43:54.633Z,96823.81
2022-12-26T01:46:29.322Z,96845.81
2022-12-26T01:48:59.968Z,96850.84
2022-12-26T01:51:31.606Z,96852.53
2022-12-26T01:54:40.220Z,96843.97
2022-12-26T01:56:48.439Z,96847.44
2022-12-26T01:59:22.106Z,96839.00
2022-12-26T02:01:51.642Z,96846.72
2022-12-26T02:04:42.718Z,96837.50
2022-12-26T02:07:09.712Z,96840.09
2022-12-26T02:09:37.835Z,96843.66
2022-12-26T02:12:36.925Z,96846.13
2022-12-26T02:15:03.633Z,96840.97
2022-12-26T02:17:30.059Z,96841.75
2022-12-26T02:20:05.188Z,96838.25
2022-12-26T02:23:08.892Z,96835.59
2022-12-26T02:25:50.453Z,96843.47
2022-12-26T02:28:38.511Z,96821.47
2022-12-26T02:31:42.421Z,96819.69
2022-12-26T02:34:30.728Z,96816.25
2022-12-26T02:37:18.425Z,96825.53
2022-12-26T02:40:06.586Z,96825.50
2022-12-26T02:42:32.927Z,96829.72
2022-12-26T02:45:30.459Z,96811.16
2022-12-26T02:48:44.402Z,96826.47
2022-12-26T02:51:38.862Z,96827.25
2022-12-26T02:54:46.621Z,96827.31
2022-12-26T02:57:36.959Z,96826.47
2022-12-26T03:00:25.189Z,96817.97
2022-12-26T03:03:34.885Z,96818.78
2022-12-26T03:06:26.208Z,96807.72
2022-12-26T03:09:17.000Z,96795.72
2022-12-26T03:12:06.344Z,96808.69
2022-12-26T03:14:48.450Z,96813.16
2022-12-26T03:17:35.945Z,96825.75
2022-12-26T03:20:11.609Z,96824.91
2022-12-26T03:22:41.132Z,96827.38
2022-12-26T03:25:41.730Z,96816.38
2022-12-26T03:28:08.470Z,96817.16
2022-12-26T03:30:50.362Z,96803.44
2022-12-26T03:33:50.779Z,96812.06
2022-12-26T03:36:36.861Z,96814.69
2022-12-26T03:39:17.220Z,96812.84
2022-12-26T03:42:18.295Z,96810.34
2022-12-26T03:45:32.522Z,96819.53
2022-12-26T03:48:38.521Z,96808.56
2022-12-26T03:51:34.619Z,96806.84
2022-12-26T03:54:30.068Z,96822.94
2022-12-26T03:57:29.025Z,96829.66
2022-12-26T04:00:26.463Z,96833.06
2022-12-26T04:03:15.055Z,96830.47
2022-12-26T04:06:03.824Z,96831.47
2022-12-26T04:09:15.973Z,96849.44
2022-12-26T04:12:03.123Z,96847.72
2022-12-26T04:14:57.032Z,96839.94
2022-12-26T04:17:48.382Z,96828.94
2022-12-26T04:20:20.413Z,96832.47
2022-12-26T04:23:19.824Z,96835.00
2022-12-26T04:26:11.800Z,96844.34
2022-12-26T04:28:56.465Z,96847.97
2022-12-26T04:31:50.226Z,96844.47
2022-12-26T04:34:46.632Z,96845.53
2022-12-26T04:37:41.570Z,96848.84
2022-12-26T04:40:32.456Z,96850.56
2022-12-26T04:43:48.570Z,96832.78
2022-12-26T04:46:05.488Z,96843.00
2022-12-26T04:48:51.593Z,96843.03
2022-12-26T04:51:17.926Z,96834.75
2022-12-26T04:53:46.332Z,96840.91
2022-12-26T04:56:13.958Z,96842.53
2022-12-26T04:58:40.306Z,96834.88
2022-12-26T05:01:25.563Z,96841.72
2022-12-26T05:04:10.806Z,96843.28
2022-12-26T05:06:55.611Z,96839.94
2022-12-26T05:09:34.417Z,96836.69
2022-12-26T05:12:09.337Z,96832.59
2022-12-26T05:14:36.568Z,96833.66
2022-12-26T05:17:23.189Z,96832.03
2022-12-26T05:20:08.206Z,96817.63
2022-12-26T05:23:00.624Z,96827.19
2022-12-26T05:25:48.412Z,96819.50
2022-12-26T05:28:35.243Z,96829.50
2022-12-26T05:31:02.174Z,96836.13
2022-12-26T05:33:47.227Z,96838.78
2022-12-26T05:36:15.648Z,96850.66
2022-12-26T05:38:42.157Z,96845.53
2022-12-26T05:41:09.374Z,96835.09
2022-12-26T05:43:35.771Z,96835.16
2022-12-26T05:46:02.540Z,96844.41
2022-12-26T05:48:28.977Z,96844.25
2022-12-26T05:51:03.214Z,96851.13
2022-12-26T05:53:31.103Z,96853.56
2022-12-26T05:56:10.418Z,96846.00
2022-12-26T05:58:36.829Z,96851.94
2022-12-26T06:01:09.049Z,96852.09
2022-12-26T06:03:36.223Z,96847.66
2022-12-26T06:06:03.848Z,96856.91
2022-12-26T06:08:30.369Z,96850.81
2022-12-26T06:10:56.995Z,96846.66
2022-12-26T06:13:23.668Z,96849.31
2022-12-26T06:15:50.306Z,96855.19
2022-12-26T06:18:16.727Z,96856.06
2022-12-26T06:20:43.140Z,96841.81
2022-12-26T06:23:09.477Z,96834.25
2022-12-26T06:25:35.841Z,96831.75
2022-12-26T06:28:02.368Z,96832.69
2022-12-26T06:30:28.740Z,96842.06
2022-12-26T06:32:55.080Z,96842.22
2022-12-26T06:35:21.507Z,96854.94
2022-12-26T06:37:47.883Z,96845.63
2022-12-26T06:40:14.367Z,96846.56
2022-12-26T06:42:40.724Z,96840.66
2022-12-26T06:45:07.518Z,96844.84
2022-12-26T06:47:33.895Z,96843.97
2022-12-26T06:50:00.225Z,96833.81
2022-12-26T06:52:27.049Z,96830.44
2022-12-26T06:54:53.417Z,96832.13
2022-12-26T06:57:19.735Z,96834.63
2022-12-26T06:59:46.349Z,96838.03
2022-12-26T07:02:12.838Z,96820.03
2022-12-26T07:04:39.219Z,96830.25
2022-12-26T07:07:05.610Z,96834.44
2022-12-26T07:09:34.036Z,96839.38
2022-12-26T07:12:01.832Z,96836.81
2022-12-26T07:14:28.204Z,96840.19
2022-12-26T07:16:54.672Z,96841.78
2022-12-26T07:19:21.081Z,96835.78
2022-12-26T07:21:47.449Z,96845.19
2022-12-26T07:24:17.153Z,96848.78
2022-12-26T07:26:44.425Z,96848.78
2022-12-26T07:29:11.941Z,96848.88
2022-12-26T07:31:38.942Z,96851.28
2022-12-26T07:34:05.709Z,96862.25
2022-12-26T07:36:32.187Z,96862.97
2022-12-26T07:38:58.731Z,96865.28
2022-12-26T07:41:44.033Z,96871.09
2022-12-26T07:44:11.362Z,96880.47
2022-12-26T07:46:37.949Z,96880.47
2022-12-26T07:49:04.434Z,96877.16
2022-12-26T07:51:30.822Z,96886.44
2022-12-26T07:53:57.222Z,96876.25
2022-12-26T07:56:23.867Z,96883.88
2022-12-26T07:58:51.245Z,96889.81
2022-12-26T08:01:18.470Z,96883.78
2022-12-26T08:03:45.285Z,96880.47
2022-12-26T08:06:12.178Z,96881.63
2022-12-26T08:08:38.619Z,96889.44
2022-12-26T08:11:07.713Z,96889.63
2022-12-26T08:13:35.172Z,96902.34
2022-12-26T08:16:08.033Z,96898.88
2022-12-26T08:18:35.016Z,96888.00
2022-12-26T08:21:02.161Z,96884.78
2022-12-26T08:23:28.592Z,96884.16
2022-12-26T08:25:55.021Z,96881.72
2022-12-26T08:28:22.937Z,96887.75
2022-12-26T08:30:50.070Z,96882.88
2022-12-26T08:33:16.924Z,96899.00
2022-12-26T08:35:43.953Z,96903.16
2022-12-26T08:38:10.441Z,96892.22
2022-12-26T08:40:44.599Z,96888.88
2022-12-26T08:43:30.282Z,96900.78
2022-12-26T08:46:02.075Z,96891.47
2022-12-26T08:48:29.062Z,96899.00
2022-12-26T08:51:00.469Z,96899.91
2022-12-26T08:53:29.079Z,96894.88
2022-12-26T08:55:56.302Z,96893.97
2022-12-26T08:58:22.753Z,96897.31
2022-12-26T09:00:55.049Z,96893.88
2022-12-26T09:03:21.962Z,96893.13
2022-12-26T09:05:48.551Z,96882.19
2022-12-26T09:08:14.965Z,96873.81
2022-12-26T09:10:41.400Z,96865.22
2022-12-26T09:13:07.844Z,96852.66
2022-12-26T09:15:34.220Z,96865.59
2022-12-26T09:18:00.733Z,96867.38
2022-12-26T09:20:27.457Z,96873.47
2022-12-26T09:22:54.424Z,96874.34
2022-12-26T09:25:24.318Z,96880.41
2022-12-26T09:27:58.764Z,96881.28
2022-12-26T09:30:25.709Z,96883.00
2022-12-26T09:32:53.055Z,96883.06
2022-12-26T09:35:19.852Z,96892.69
2022-12-26T09:37:46.232Z,96900.53
2022-12-26T09:40:28.372Z,96899.66
2022-12-26T09:43:06.259Z,96908.06
2022-12-26T09:45:51.871Z,96909.78
2022-12-26T09:48:27.677Z,96913.97
2022-12-26T09:50:54.191Z,96904.56
2022-12-26T09:53:38.825Z,96908.81
2022-12-26T09:56:36.935Z,96893.44
2022-12-26T09:59:07.793Z,96890.06
2022-12-26T10:01:36.611Z,96890.03
2022-12-26T10:04:28.830Z,96890.94
2022-12-26T10:07:20.586Z,96896.88
2022-12-26T10:10:12.413Z,96895.19
2022-12-26T10:12:48.912Z,96892.66
2022-12-26T10:15:27.343Z,96880.78
2022-12-26T10:18:06.973Z,96880.78
2022-12-26T10:21:03.369Z,96882.59
2022-12-26T10:23:39.564Z,96876.66
2022-12-26T10:26:11.108Z,96878.41
2022-12-26T10:28:49.646Z,96876.06
2022-12-26T10:31:45.349Z,96871.03
2022-12-26T10:34:26.813Z,96872.81
2022-12-26T10:37:10.309Z,96883.91
2022-12-26T10:39:47.809Z,96874.44
2022-12-26T10:42:29.774Z,96878.72
2022-12-26T10:44:57.975Z,96882.91
2022-12-26T10:47:33.507Z,96868.56
2022-12-26T10:50:01.237Z,96872.09
2022-12-26T10:52:34.739Z,96856.84
2022-12-26T10:55:28.206Z,96851.81
2022-12-26T10:57:50.624Z,96843.56
2022-12-26T11:00:21.322Z,96843.88
2022-12-26T11:03:09.440Z,96842.31
2022-12-26T11:08:43.639Z,96851.06
2022-12-26T11:11:24.476Z,96847.78
2022-12-26T11:14:01.812Z,96834.31
2022-12-26T11:16:32.005Z,96838.63
2022-12-26T11:18:58.985Z,96846.50
2022-12-26T11:21:27.597Z,96848.25
2022-12-26T11:24:11.424Z,96858.59
2022-12-26T11:26:38.524Z,96855.16
2022-12-26T11:29:10.321Z,96850.94
2022-12-26T11:31:38.146Z,96848.53
2022-12-26T11:34:10.170Z,96857.03
2022-12-26T11:36:40.286Z,96862.19
2022-12-26T11:39:25.976Z,96859.72
2022-12-26T11:41:52.995Z,96869.94
2022-12-26T11:44:28.558Z,96862.28
2022-12-26T11:47:00.075Z,96870.81
2022-12-26T11:49:39.587Z,96870.00
2022-12-26T11:52:30.857Z,96867.50
2022-12-26T11:54:57.295Z,96876.09
2022-12-26T11:57:32.340Z,96876.16
2022-12-26T12:00:22.016Z,96877.94
2022-12-26T12:02:48.778Z,96885.59
2022-12-26T12:05:36.345Z,96878.69
2022-12-26T12:08:35.482Z,96896.69
2022-12-26T12:11:33.407Z,96898.38
2022-12-26T12:14:12.604Z,96907.81
2022-12-26T12:16:47.964Z,96904.38
2022-12-26T12:19:47.173Z,96919.72
2022-12-26T12:22:23.128Z,96924.84
2022-12-26T12:25:43.618Z,96934.25
2022-12-26T12:28:42.143Z,96929.97
2022-12-26T12:31:30.170Z,96921.44
2022-12-26T12:34:04.435Z,96929.94
2022-12-26T12:36:38.818Z,96918.00
2022-12-26T12:39:37.417Z,96926.56
2022-12-26T12:42:15.645Z,96914.63
2022-12-26T12:45:03.661Z,96900.94
2022-12-26T12:48:14.162Z,96877.88
2022-12-26T12:51:04.338Z,96890.78
2022-12-26T12:53:47.291Z,96887.50
2022-12-26T12:56:20.495Z,96883.25
2022-12-26T12:59:15.467Z,96872.25
2022-12-26T13:01:49.927Z,96863.75
2022-12-26T13:04:24.206Z,96884.22
2022-12-26T13:07:25.554Z,96887.63
2022-12-26T13:10:00.134Z,96881.69
2022-12-26T13:12:31.442Z,96888.50
2022-12-26T13:15:02.568Z,96883.41
2022-12-26T13:17:34.841Z,96878.34
2022-12-26T13:20:13.143Z,96879.13
2022-12-26T13:23:10.215Z,96873.97
2022-12-26T13:25:44.635Z,96881.66
2022-12-26T13:28:18.212Z,96879.94
2022-12-26T13:30:44.817Z,96884.22
2022-12-26T13:33:15.914Z,96894.31
2022-12-26T13:35:58.711Z,96898.59
2022-12-26T13:38:50.666Z,96908.03
2022-12-26T13:41:38.971Z,96930.22
2022-12-26T13:44:06.195Z,96912.31
2022-12-26T13:46:37.317Z,96905.41
2022-12-26T13:49:04.009Z,96907.19
2022-12-26T13:52:19.506Z,96908.91
2022-12-26T13:54:48.722Z,96889.22
2022-12-26T13:57:34.572Z,96883.22
2022-12-26T14:00:09.444Z,96901.13
2022-12-26T14:03:21.412Z,96906.16
2022-12-26T14:06:03.061Z,96906.25
2022-12-26T14:08:41.169Z,96922.34
2022-12-26T14:11:34.903Z,96916.41
2022-12-26T14:14:49.517Z,96913.72
2022-12-26T14:17:37.326Z,96913.78
2022-12-26T14:20:21.141Z,96927.38
2022-12-26T14:22:59.716Z,96923.94
2022-12-26T14:25:38.792Z,96936.69
2022-12-26T14:28:19.815Z,96918.00
2022-12-26T14:31:19.314Z,96918.78
2022-12-26T14:33:49.095Z,96918.66
2022-12-26T14:36:48.647Z,96912.78
2022-12-26T14:39:52.209Z,96931.38
2022-12-26T14:42:44.835Z,96928.84
2022-12-26T14:45:29.335Z,96924.56
2022-12-26T14:47:56.075Z,96919.44
2022-12-26T14:50:39.714Z,96914.31
2022-12-26T14:53:24.451Z,96917.72
2022-12-26T14:55:50.940Z,96907.56
2022-12-26T14:58:37.463Z,96911.72
2022-12-26T15:01:10.642Z,96903.16
2022-12-26T15:03:59.026Z,96903.19
2022-12-26T15:06:44.320Z,96891.16
2022-12-26T15:09:38.509Z,96906.34
2022-12-26T15:12:14.088Z,96908.94
2022-12-26T15:15:10.488Z,96905.59
2022-12-26T15:17:45.990Z,96903.78
2022-12-26T15:20:18.489Z,96881.56
2022-12-26T15:22:44.940Z,96878.13
2022-12-26T15:25:49.127Z,96872.94
2022-12-26T15:28:53.108Z,96902.72
2022-12-26T15:31:26.839Z,96916.44
2022-12-26T15:34:05.845Z,96919.84
2022-12-26T15:36:49.179Z,96926.66
2022-12-26T15:39:39.158Z,96925.81
2022-12-26T15:42:22.075Z,96924.13
2022-12-26T15:45:10.213Z,96919.88
2022-12-26T15:48:04.239Z,96910.41
2022-12-26T15:50:50.965Z,96927.50
2022-12-26T15:53:31.921Z,96907.88
2022-12-26T15:56:06.917Z,96917.22
2022-12-26T15:59:00.113Z,96914.78
2022-12-26T16:01:40.105Z,96910.44
2022-12-26T16:04:20.830Z,96915.59
2022-12-26T16:07:09.084Z,96908.84
2022-12-26T16:09:35.393Z,96913.13
2022-12-26T16:12:02.525Z,96914.81
2022-12-26T16:14:39.206Z,96909.66
2022-12-26T16:17:14.623Z,96907.00
2022-12-26T16:19:43.246Z,96904.47
2022-12-26T16:22:43.931Z,96915.59
2022-12-26T16:25:26.012Z,96920.69
2022-12-26T16:27:58.086Z,96917.31
2022-12-26T16:30:32.787Z,96901.94
2022-12-26T16:33:00.251Z,96907.09
2022-12-26T16:35:29.459Z,96927.50
2022-12-26T16:37:58.843Z,96930.16
2022-12-26T16:40:33.682Z,96924.22
2022-12-26T16:43:18.189Z,96918.25
2022-12-26T16:45:47.638Z,96923.41
2022-12-26T16:48:18.277Z,96931.81
2022-12-26T16:50:49.048Z,96928.44
2022-12-26T16:53:21.287Z,96931.09
2022-12-26T16:55:57.605Z,96922.59
2022-12-26T16:58:25.985Z,96931.94
2022-12-26T17:01:12.621Z,96929.38
2022-12-26T17:04:10.734Z,96926.81
2022-12-26T17:06:41.439Z,96917.53
2022-12-26T17:09:16.838Z,96914.97
2022-12-26T17:11:57.482Z,96920.09
2022-12-26T17:14:32.925Z,96925.19
2022-12-26T17:17:04.788Z,96918.38
2022-12-26T17:19:34.391Z,96920.13
2022-12-26T17:22:19.165Z,96904.75
2022-12-26T17:24:47.983Z,96920.94
2022-12-26T17:27:23.307Z,96899.56
2022-12-26T17:30:18.872Z,96903.00
2022-12-26T17:32:47.260Z,96891.19
2022-12-26T17:35:24.006Z,96908.19
2022-12-26T17:37:55.488Z,96905.69
2022-12-26T17:40:30.216Z,96903.16
2022-12-26T17:43:19.741Z,96904.84
2022-12-26T17:45:47.119Z,96891.19
2022-12-26T17:48:13.822Z,96898.00
2022-12-26T17:50:42.995Z,96911.69
2022-12-26T17:53:32.766Z,96909.91
2022-12-26T17:56:05.550Z,96908.22
2022-12-26T17:58:34.031Z,96897.22
2022-12-26T18:01:01.217Z,96893.72
2022-12-26T18:03:28.138Z,96905.72
2022-12-26T18:05:56.424Z,96905.72
2022-12-26T18:08:26.324Z,96908.28
2022-12-26T18:10:53.196Z,96911.69
2022-12-26T18:13:19.624Z,96914.22
2022-12-26T18:15:47.001Z,96906.53
2022-12-26T18:18:36.154Z,96914.31
2022-12-26T18:21:03.687Z,96908.19
2022-12-26T18:23:30.441Z,96903.13
2022-12-26T18:26:00.981Z,96909.13
2022-12-26T18:28:28.138Z,96903.13
2022-12-26T18:30:56.747Z,96910.72
2022-12-26T18:33:23.168Z,96900.50
2022-12-26T18:35:49.653Z,96901.31
2022-12-26T18:38:20.054Z,96903.84
2022-12-26T18:40:49.331Z,96918.41
2022-12-26T18:43:16.077Z,96914.84
2022-12-26T18:45:43.187Z,96898.78
2022-12-26T18:48:13.565Z,96897.09
2022-12-26T18:50:40.081Z,96909.81
2022-12-26T18:53:06.557Z,96907.19
2022-12-26T18:55:32.956Z,96895.34
2022-12-26T18:57:59.312Z,96891.84
2022-12-26T19:00:25.992Z,96889.28
2022-12-26T19:02:52.741Z,96895.31
2022-12-26T19:05:31.308Z,96908.88
2022-12-26T19:07:59.028Z,96902.91
2022-12-26T19:10:28.829Z,96891.03
2022-12-26T19:13:02.866Z,96898.69
2022-12-26T19:15:33.165Z,96897.91
2022-12-26T19:17:59.752Z,96900.47
2022-12-26T19:20:27.073Z,96901.38
2022-12-26T19:22:54.629Z,96897.97
2022-12-26T19:25:23.109Z,96902.22
2022-12-26T19:27:50.616Z,96908.16
2022-12-26T19:30:18.754Z,96908.06
2022-12-26T19:32:45.625Z,96918.19
2022-12-26T19:35:13.013Z,96919.13
2022-12-26T19:37:40.220Z,96918.25
2022-12-26T19:40:07.979Z,96914.84
2022-12-26T19:42:37.105Z,96913.03
2022-12-26T19:45:05.151Z,96907.16
2022-12-26T19:47:31.595Z,96915.69
2022-12-26T19:49:57.952Z,96921.56
2022-12-26T19:52:24.512Z,96920.66
2022-12-26T19:54:51.034Z,96913.03
2022-12-26T19:57:17.440Z,96927.50
2022-12-26T19:59:43.994Z,96920.63
2022-12-26T20:02:13.539Z,96929.13
2022-12-26T20:04:40.042Z,96936.78
2022-12-26T20:07:06.528Z,96939.41
2022-12-26T20:09:32.942Z,96938.50
2022-12-26T20:11:59.443Z,96938.41
2022-12-26T20:14:27.213Z,96938.34
2022-12-26T20:17:07.170Z,96947.84
2022-12-26T20:19:34.924Z,96954.63
2022-12-26T20:22:01.372Z,96972.41
2022-12-26T20:24:27.837Z,96965.59
2022-12-26T20:26:54.378Z,96966.41
2022-12-26T20:29:21.182Z,96980.09
2022-12-26T20:31:47.668Z,96981.78
2022-12-26T20:34:14.318Z,96992.78
2022-12-26T20:36:41.458Z,96998.63
2022-12-26T20:39:16.698Z,97002.97
2022-12-26T20:41:43.246Z,96997.88
2022-12-26T20:44:12.348Z,97024.34
2022-12-26T20:46:40.026Z,97011.53
2022-12-26T20:49:06.401Z,97024.94
2022-12-26T20:51:37.802Z,97017.81
2022-12-26T20:54:06.033Z,97028.81
2022-12-26T20:56:32.573Z,97031.97
2022-12-26T20:58:59.602Z,97039.47
2022-12-26T21:01:27.045Z,97024.00
2022-12-26T21:03:55.300Z,97040.94
2022-12-26T21:06:28.190Z,97037.13
2022-12-26T21:08:56.265Z,97048.94
2022-12-26T21:11:24.663Z,97049.47
2022-12-26T21:13:54.494Z,97051.25
2022-12-26T21:16:42.998Z,97042.69
2022-12-26T21:19:15.035Z,97020.50
2022-12-26T21:21:44.823Z,97027.22
2022-12-26T21:24:33.134Z,97015.31
2022-12-26T21:26:59.621Z,97028.88
2022-12-26T21:29:28.854Z,97036.56
2022-12-26T21:31:55.908Z,97036.47
2022-12-26T21:34:26.086Z,97014.25
2022-12-26T21:37:13.000Z,97027.09
2022-12-26T21:39:40.190Z,97027.00
2022-12-26T21:42:07.938Z,97027.81
2022-12-26T21:44:35.840Z,97040.38
2022-12-26T21:47:04.166Z,97052.97
2022-12-26T21:49:30.731Z,97057.97
2022-12-26T21:51:57.183Z,97077.47
2022-12-26T21:54:48.286Z,97083.03
2022-12-26T21:57:15.781Z,97091.22
2022-12-26T21:59:57.465Z,97091.06
2022-12-26T22:02:48.469Z,97095.47
2022-12-26T22:05:16.034Z,97100.59
2022-12-26T22:07:42.743Z,97105.69
2022-12-26T22:10:29.773Z,97111.72
2022-12-26T22:12:59.270Z,97114.09
2022-12-26T22:15:45.457Z,97113.19
2022-12-26T22:18:11.996Z,97119.25
2022-12-26T22:20:38.385Z,97127.59
2022-12-26T22:23:04.782Z,97131.91
2022-12-26T22:25:31.253Z,97131.97
2022-12-26T22:27:59.577Z,97142.22
2022-12-26T22:30:26.148Z,97136.91
2022-12-26T22:32:52.600Z,97145.56
2022-12-26T22:35:19.150Z,97136.34
2022-12-26T22:37:45.618Z,97136.97
2022-12-26T22:40:12.599Z,97156.59
2022-12-26T22:42:39.070Z,97148.00
2022-12-26T22:45:05.978Z,97156.59
2022-12-26T22:47:32.395Z,97162.59
2022-12-26T22:49:58.772Z,97161.06
2022-12-26T22:52:25.145Z,97154.25
2022-12-26T22:54:51.493Z,97146.69
2022-12-26T22:57:17.841Z,97152.59
2022-12-26T23:00:10.919Z,97166.09
2022-12-26T23:02:30.813Z,97163.59
2022-12-26T23:04:57.676Z,97167.72
2022-12-26T23:07:24.455Z,97170.22
2022-12-26T23:09:51.142Z,97164.31
2022-12-26T23:12:36.104Z,97159.16
2022-12-26T23:15:02.767Z,97161.84
2022-12-26T23:17:52.351Z,97166.09
2022-12-26T23:20:39.578Z,97166.91
2022-12-26T23:23:06.201Z,97168.63
2022-12-26T23:25:32.641Z,97165.34
2022-12-26T23:28:17.590Z,97169.34
2022-12-26T23:30:44.045Z,97171.13
2022-12-26T23:33:10.488Z,97176.94
2022-12-26T23:35:37.115Z,97181.31
2022-12-26T23:38:03.457Z,97187.00
2022-12-26T23:40:29.897Z,97185.22
2022-12-26T23:42:56.274Z,97188.50
2022-12-26T23:45:22.864Z,97190.09
2022-12-26T23:47:49.322Z,97202.00
2022-12-26T23:50:17.081Z,97199.47
2022-12-26T23:52:44.053Z,97206.22
2022-12-26T23:55:11.096Z,97215.53
2022-12-26T23:57:37.909Z,97216.28
